createdAt,value
2022-10-25T00:03:27.307Z,2.43
2022-10-25T00:08:31.610Z,2.33
2022-10-25T00:13:34.781Z,3.13
2022-10-25T00:18:37.694Z,2.40
2022-10-25T00:23:41.975Z,3.00
2022-10-25T00:28:45.163Z,2.50
2022-10-25T00:33:48.072Z,3.53
2022-10-25T00:38:52.792Z,2.60
2022-10-25T00:43:57.467Z,2.40
2022-10-25T00:49:04.241Z,3.00
2022-10-25T00:54:12.707Z,2.83
2022-10-25T00:59:19.919Z,3.30
2022-10-25T01:04:26.917Z,2.60
2022-10-25T01:09:33.256Z,2.50
2022-10-25T01:14:39.407Z,2.60
2022-10-25T01:20:05.269Z,2.90
2022-10-25T01:25:33.412Z,3.13
2022-10-25T01:31:10.032Z,2.93
2022-10-25T01:36:17.645Z,2.43
2022-10-25T01:41:26.529Z,2.33
2022-10-25T01:46:41.010Z,3.10
2022-10-25T01:51:43.968Z,2.80
2022-10-25T01:56:55.404Z,3.00
2022-10-25T02:02:08.530Z,2.60
2022-10-25T02:07:16.202Z,2.63
2022-10-25T02:12:26.364Z,2.60
2022-10-25T02:17:31.892Z,3.07
2022-10-25T02:22:35.922Z,2.57
2022-10-25T02:27:40.932Z,2.97
2022-10-25T02:32:45.269Z,3.23
2022-10-25T02:37:48.525Z,2.87
2022-10-25T02:42:51.655Z,2.93
2022-10-25T02:47:55.900Z,2.63
2022-10-25T02:52:58.798Z,2.83
2022-10-25T02:58:01.710Z,2.60
2022-10-25T03:03:06.289Z,2.83
2022-10-25T03:08:09.221Z,2.40
2022-10-25T03:13:12.124Z,2.90
2022-10-25T03:18:16.840Z,2.20
2022-10-25T03:23:19.957Z,2.87
2022-10-25T03:28:23.070Z,2.50
2022-10-25T03:33:28.258Z,1.83
2022-10-25T03:38:31.175Z,2.17
2022-10-25T03:43:34.105Z,2.40
2022-10-25T03:48:38.363Z,2.60
2022-10-25T03:53:41.255Z,2.50
2022-10-25T03:58:44.137Z,2.27
2022-10-25T04:03:48.375Z,2.47
2022-10-25T04:08:51.294Z,2.03
2022-10-25T04:13:54.232Z,1.90
2022-10-25T04:18:59.218Z,2.23
2022-10-25T04:24:04.403Z,2.13
2022-10-25T04:29:08.426Z,2.30
2022-10-25T04:34:12.889Z,2.20
2022-10-25T04:39:16.211Z,1.70
2022-10-25T04:44:19.119Z,1.90
2022-10-25T04:49:23.419Z,2.00
2022-10-25T04:54:26.344Z,2.00
2022-10-25T04:59:29.311Z,2.80
2022-10-25T05:04:33.620Z,2.00
2022-10-25T05:09:36.533Z,1.97
2022-10-25T05:14:39.501Z,2.20
2022-10-25T05:19:43.767Z,2.33
2022-10-25T05:24:46.680Z,2.50
2022-10-25T05:29:49.582Z,2.40
2022-10-25T05:34:53.840Z,1.87
2022-10-25T05:39:56.783Z,1.93
2022-10-25T05:44:59.680Z,2.53
2022-10-25T05:50:04.129Z,2.10
2022-10-25T05:55:07.568Z,1.80
2022-10-25T06:00:11.338Z,2.10
2022-10-25T06:05:15.888Z,2.60
2022-10-25T06:10:18.934Z,3.07
2022-10-25T06:15:21.837Z,2.00
2022-10-25T06:20:26.420Z,2.53
2022-10-25T06:25:29.461Z,2.00
2022-10-25T06:30:33.232Z,1.50
2022-10-25T06:35:37.511Z,2.00
2022-10-25T06:40:40.406Z,1.70
2022-10-25T06:45:43.670Z,1.70
2022-10-25T06:50:49.981Z,1.73
2022-10-25T06:55:55.079Z,1.80
2022-10-25T07:01:01.704Z,1.60
2022-10-25T07:06:08.047Z,1.97
2022-10-25T07:11:15.559Z,1.40
2022-10-25T07:16:20.656Z,2.03
2022-10-25T07:21:24.988Z,2.17
2022-10-25T07:26:30.858Z,1.83
2022-10-25T07:31:36.726Z,1.57
2022-10-25T07:36:41.220Z,1.90
2022-10-25T07:41:44.139Z,2.10
2022-10-25T07:46:47.424Z,1.87
2022-10-25T07:51:51.675Z,1.70
2022-10-25T07:56:54.563Z,1.43
2022-10-25T08:01:57.456Z,1.60
2022-10-25T08:07:02.376Z,1.73
2022-10-25T08:12:05.632Z,1.70
2022-10-25T08:17:08.703Z,1.50
2022-10-25T08:22:12.967Z,1.60
2022-10-25T08:27:15.874Z,1.40
2022-10-25T08:32:18.825Z,1.80
2022-10-25T08:37:23.248Z,1.40
2022-10-25T08:42:33.107Z,1.70
2022-10-25T08:47:39.789Z,1.77
2022-10-25T08:52:48.524Z,1.80
2022-10-25T08:57:53.506Z,1.70
2022-10-25T09:02:58.574Z,1.30
2022-10-25T09:08:16.477Z,1.40
2022-10-25T09:13:31.228Z,1.40
2022-10-25T09:18:42.475Z,1.20
2022-10-25T09:23:57.888Z,1.50
2022-10-25T09:29:05.539Z,1.60
2022-10-25T09:34:11.536Z,1.37
2022-10-25T09:39:22.391Z,1.40
2022-10-25T09:44:36.183Z,1.60
2022-10-25T09:49:44.837Z,1.40
2022-10-25T09:54:54.610Z,1.63
2022-10-25T09:59:57.841Z,1.70
2022-10-25T10:05:00.775Z,1.60
2022-10-25T10:10:09.608Z,1.60
2022-10-25T10:15:20.044Z,1.47
2022-10-25T10:20:23.059Z,1.53
2022-10-25T10:25:29.355Z,2.07
2022-10-25T10:30:32.968Z,2.37
2022-10-25T10:35:38.312Z,2.03
2022-10-25T10:40:44.733Z,2.20
2022-10-25T10:45:51.718Z,1.90
2022-10-25T10:50:54.762Z,1.93
2022-10-25T10:56:01.293Z,1.50
2022-10-25T11:01:07.312Z,1.80
2022-10-25T11:06:14.389Z,2.17
2022-10-25T11:11:20.749Z,1.70
2022-10-25T11:16:45.119Z,1.80
2022-10-25T11:22:18.249Z,1.60
2022-10-25T11:27:35.031Z,2.10
2022-10-25T11:33:10.947Z,2.17
2022-10-25T11:38:18.157Z,2.10
2022-10-25T11:43:48.472Z,1.80
2022-10-25T11:49:04.002Z,1.90
2022-10-25T11:54:31.369Z,1.73
2022-10-25T11:59:49.971Z,1.23
2022-10-25T12:05:04.681Z,1.30
2022-10-25T12:10:17.814Z,1.90
2022-10-25T12:15:25.458Z,2.23
2022-10-25T12:20:31.266Z,2.00
2022-10-25T12:25:38.580Z,2.37
2022-10-25T12:30:43.828Z,2.97
2022-10-25T12:35:51.091Z,1.60
2022-10-25T12:40:58.497Z,1.73
2022-10-25T12:46:39.872Z,1.67
2022-10-25T12:52:00.055Z,1.90
2022-10-25T12:57:14.729Z,1.90
2022-10-25T13:02:50.882Z,2.13
2022-10-25T13:07:57.740Z,1.37
2022-10-25T13:13:03.320Z,1.90
2022-10-25T13:18:27.417Z,1.03
2022-10-25T13:24:05.720Z,1.40
2022-10-25T13:29:41.734Z,1.80
2022-10-25T13:34:46.093Z,2.03
2022-10-25T13:39:55.314Z,1.70
2022-10-25T13:45:06.954Z,2.60
2022-10-25T13:55:23.374Z,1.90
2022-10-25T14:00:36.587Z,1.80
2022-10-25T14:06:29.649Z,1.60
2022-10-25T14:11:39.648Z,1.87
2022-10-25T14:16:54.701Z,1.70
2022-10-25T14:21:57.996Z,1.50
2022-10-25T14:27:02.629Z,1.93
2022-10-25T14:32:14.099Z,1.97
2022-10-25T14:37:17.081Z,1.60
2022-10-25T14:42:21.324Z,2.03
2022-10-25T14:47:29.366Z,1.97
2022-10-25T14:52:32.789Z,1.70
2022-10-25T14:57:37.467Z,2.10
2022-10-25T15:02:41.592Z,2.17
2022-10-25T15:07:47.039Z,1.83
2022-10-25T15:12:53.383Z,2.30
2022-10-25T15:17:56.663Z,2.70
2022-10-25T15:23:04.737Z,4.60
2022-10-25T15:28:13.474Z,4.63
2022-10-25T15:33:18.860Z,3.40
2022-10-25T15:38:21.827Z,2.77
2022-10-25T15:43:26.179Z,2.10
2022-10-25T15:48:29.460Z,2.00
2022-10-25T15:53:32.440Z,1.90
2022-10-25T15:58:36.756Z,2.10
2022-10-25T16:03:39.709Z,2.00
2022-10-25T16:08:42.920Z,2.60
2022-10-25T16:13:51.176Z,2.20
2022-10-25T16:18:54.763Z,2.20
2022-10-25T16:23:57.835Z,2.40
2022-10-25T16:29:02.104Z,3.00
2022-10-25T16:34:04.995Z,2.47
2022-10-25T16:39:08.886Z,6.20
2022-10-25T16:44:15.199Z,4.70
2022-10-25T16:49:18.130Z,3.77
2022-10-25T16:54:24.158Z,5.40
2022-10-25T16:59:28.653Z,4.80
2022-10-25T17:04:31.585Z,5.60
2022-10-25T17:09:34.459Z,4.20
2022-10-25T17:14:39.378Z,3.47
2022-10-25T17:19:42.377Z,3.83
2022-10-25T17:24:45.497Z,2.93
2022-10-25T17:29:49.742Z,4.03
2022-10-25T17:34:53.859Z,3.43
2022-10-25T17:39:56.772Z,3.57
2022-10-25T17:45:01.037Z,3.20
2022-10-25T17:50:04.414Z,3.60
2022-10-25T17:55:10.128Z,3.30
2022-10-25T18:00:15.852Z,4.60
2022-10-25T18:05:21.335Z,4.73
2022-10-25T18:10:24.562Z,8.43
2022-10-25T18:15:29.313Z,3.00
2022-10-25T18:20:32.440Z,6.90
2022-10-25T18:25:35.379Z,5.70
2022-10-25T18:30:39.647Z,7.20
2022-10-25T18:35:42.899Z,5.30
2022-10-25T18:40:45.875Z,6.73
2022-10-25T18:45:50.365Z,7.00
2022-10-25T18:50:53.595Z,7.70
2022-10-25T18:55:56.498Z,6.00
2022-10-25T19:01:08.443Z,10.70
2022-10-25T19:06:11.877Z,9.60
2022-10-25T19:11:16.265Z,8.80
2022-10-25T19:16:21.712Z,8.50
2022-10-25T19:21:24.729Z,9.20
2022-10-25T19:26:27.912Z,8.57
2022-10-25T19:31:32.320Z,8.30
2022-10-25T19:36:35.575Z,7.70
2022-10-25T19:41:38.584Z,7.87
2022-10-25T19:46:42.881Z,7.17
2022-10-25T19:51:45.862Z,7.17
2022-10-25T19:56:48.880Z,8.07
2022-10-25T20:01:53.256Z,8.10
2022-10-25T20:06:56.242Z,6.70
2022-10-25T20:11:59.192Z,3.63
2022-10-25T20:17:03.632Z,4.80
2022-10-25T20:22:06.901Z,3.73
2022-10-25T20:27:09.810Z,3.87
2022-10-25T20:32:15.015Z,4.10
2022-10-25T20:37:18.329Z,7.67
2022-10-25T20:42:21.220Z,8.30
2022-10-25T20:47:25.548Z,6.10
2022-10-25T20:52:28.435Z,4.23
2022-10-25T20:57:33.616Z,6.87
2022-10-25T21:02:38.245Z,2.93
2022-10-25T21:07:41.327Z,2.57
2022-10-25T21:12:44.289Z,2.57
2022-10-25T21:17:51.170Z,3.23
2022-10-25T21:22:54.201Z,2.73
2022-10-25T21:27:57.431Z,3.30
2022-10-25T21:33:01.713Z,5.73
2022-10-25T21:38:04.611Z,7.60
2022-10-25T21:43:07.516Z,3.40
2022-10-25T21:48:11.862Z,2.80
2022-10-25T21:53:15.267Z,2.40
2022-10-25T21:58:18.159Z,2.43
2022-10-25T22:03:24.285Z,2.43
2022-10-25T22:08:29.806Z,2.50
2022-10-25T22:13:32.934Z,2.17
2022-10-25T22:18:37.962Z,2.13
2022-10-25T22:23:41.159Z,2.77
2022-10-25T22:28:44.151Z,2.17
2022-10-25T22:33:48.640Z,4.37
2022-10-25T22:38:51.558Z,4.00
2022-10-25T22:43:55.173Z,3.90
2022-10-25T22:49:00.417Z,4.40
2022-10-25T22:54:04.524Z,4.57
2022-10-25T22:59:07.797Z,4.00
2022-10-25T23:04:12.560Z,3.90
2022-10-25T23:09:15.617Z,3.57
2022-10-25T23:14:18.528Z,4.40
2022-10-25T23:19:22.815Z,4.30
2022-10-25T23:24:25.859Z,4.13
2022-10-25T23:29:28.761Z,4.27
2022-10-25T23:34:34.268Z,3.93
2022-10-25T23:39:37.144Z,4.13
2022-10-25T23:44:40.025Z,3.87
2022-10-25T23:49:44.298Z,5.00
2022-10-25T23:54:47.183Z,4.43
2022-10-25T23:59:50.081Z,4.07
